Time;durP1;ratioP1;P1;durP2;ratioP2;P2;SDS_P1;SDS_P2;PMS_P1;PMS_P2;Temp;Humidity;BMP_temperature;BMP_pressure;BME280_temperature;BME280_humidity;BME280_pressure;Samples;Min_cycle;Max_cycle;Signal;HPM_P1;HPM_P2
2023/09/13 00:00:23;;;;;;;;;;;;;;;28.05;39.68;101194.38;5023415;28;20391;-87
2023/09/13 00:02:49;;;;;;;;;;;;;;;27.98;39.71;101191.44;5021501;28;19971;-87
2023/09/13 00:05:14;;;;;;;;;;;;;;;27.92;39.91;101184.59;5021881;28;20274;-87
2023/09/13 00:07:40;;;;;;;;;;;;;;;27.87;39.93;101177.41;5022211;28;20416;-86
2023/09/13 00:10:05;;;;;;;;;;;;;;;27.84;39.75;101172.63;5022512;28;19924;-87
2023/09/13 00:12:31;;;;;;;;;;;;;;;27.81;39.82;101156.78;5021271;28;19924;-86
2023/09/13 00:14:56;;;;;;;;;;;;;;;27.78;39.84;101156.69;5022682;28;19925;-86
2023/09/13 00:17:22;;;;;;;;;;;;;;;27.70;40.17;101161.22;5038750;28;19924;-87
2023/09/13 00:19:47;;;;;;;;;;;;;;;27.64;40.44;101154.38;5020606;28;19924;-86
2023/09/13 00:22:12;;;;;;;;;;;;;;;27.58;40.28;101148.31;5036431;28;19925;-86
2023/09/13 00:24:38;;;;;;;;;;;;;;;27.55;40.40;101143.50;5022878;28;19944;-86
2023/09/13 00:27:03;;;;;;;;;;;;;;;27.55;40.25;101135.25;5020427;28;20385;-87
2023/09/13 00:29:32;;;;;;;;;;;;;;;27.54;40.34;101128.16;5022410;28;19921;-87
2023/09/13 00:31:58;;;;;;;;;;;;;;;27.52;40.55;101135.97;5020306;28;19929;-86
2023/09/13 00:34:23;;;;;;;;;;;;;;;27.52;40.42;101141.47;5020391;28;19924;-86
2023/09/13 00:36:48;;;;;;;;;;;;;;;27.53;40.36;101142.28;5021142;28;19917;-86
2023/09/13 00:39:14;;;;;;;;;;;;;;;27.52;40.42;101135.97;5023193;28;20162;-86
2023/09/13 00:41:39;;;;;;;;;;;;;;;27.51;40.32;101134.38;5017104;28;20002;-86
2023/09/13 00:44:05;;;;;;;;;;;;;;;27.51;40.27;101139.88;5020902;28;19918;-86
2023/09/13 00:46:30;;;;;;;;;;;;;;;27.49;40.37;101144.94;5016460;28;19931;-86
2023/09/13 00:48:55;;;;;;;;;;;;;;;27.49;40.35;101135.88;5018827;28;19928;-86
2023/09/13 00:51:21;;;;;;;;;;;;;;;27.47;40.33;101141.75;5020852;28;19917;-86
2023/09/13 00:53:47;;;;;;;;;;;;;;;27.45;40.30;101137.72;5018787;28;19917;-86
2023/09/13 00:56:12;;;;;;;;;;;;;;;27.42;40.36;101143.94;5020311;28;19921;-86
2023/09/13 00:58:38;;;;;;;;;;;;;;;27.37;40.37;101137.53;5019908;28;20191;-86
2023/09/13 01:01:05;;;;;;;;;;;;;;;27.33;40.49;101133.09;5019025;28;20384;-86
2023/09/13 01:03:30;;;;;;;;;;;;;;;27.29;40.43;101124.75;5016200;28;20365;-86
2023/09/13 01:05:56;;;;;;;;;;;;;;;27.26;40.43;101122.69;5021585;28;19929;-85
2023/09/13 01:08:21;;;;;;;;;;;;;;;27.23;40.46;101125.34;5036476;28;19917;-86
2023/09/13 01:10:47;;;;;;;;;;;;;;;27.22;40.37;101127.28;5020018;28;19928;-86
2023/09/13 01:13:13;;;;;;;;;;;;;;;27.19;40.80;101129.97;5023757;28;19921;-86
2023/09/13 01:15:42;;;;;;;;;;;;;;;27.14;41.21;101136.50;5019816;28;19932;-86
2023/09/13 01:18:20;;;;;;;;;;;;;;;27.08;41.14;101146.16;5016214;28;19983;-86
2023/09/13 01:20:45;;;;;;;;;;;;;;;27.06;41.14;101143.75;5019916;28;19925;-86
2023/09/13 01:23:16;;;;;;;;;;;;;;;27.08;41.22;101146.16;5022861;28;20229;-86
2023/09/13 01:26:07;;;;;;;;;;;;;;;27.06;40.95;101132.75;5021936;28;20336;-85
2023/09/13 01:28:40;;;;;;;;;;;;;;;27.02;40.88;101137.34;5019192;28;19917;-85
2023/09/13 01:31:06;;;;;;;;;;;;;;;27.00;40.94;101141.63;5013083;28;20067;-86
2023/09/13 01:33:32;;;;;;;;;;;;;;;26.99;40.95;101117.97;5019559;28;19928;-86
2023/09/13 01:35:58;;;;;;;;;;;;;;;26.99;40.90;101115.22;5017853;28;19925;-86
2023/09/13 01:38:23;;;;;;;;;;;;;;;26.97;40.87;101106.53;5015325;28;20392;-86
2023/09/13 01:40:49;;;;;;;;;;;;;;;26.94;40.89;101110.78;4999474;28;20480;-86
2023/09/13 01:43:15;;;;;;;;;;;;;;;26.90;41.07;101103.56;5001177;28;20115;-86
2023/09/13 01:45:40;;;;;;;;;;;;;;;26.83;41.66;101106.13;4995498;28;19980;-86
2023/09/13 01:48:06;;;;;;;;;;;;;;;26.77;41.47;101098.13;4997472;28;20279;-85
2023/09/13 01:50:33;;;;;;;;;;;;;;;26.75;41.36;101091.38;4999370;28;20196;-85
2023/09/13 01:53:00;;;;;;;;;;;;;;;26.75;41.34;101072.13;4998887;28;19925;-86
2023/09/13 01:55:26;;;;;;;;;;;;;;;26.76;41.38;101085.53;4999161;28;19925;-86
2023/09/13 01:57:51;;;;;;;;;;;;;;;26.76;41.30;101073.75;4998037;28;19925;-85
2023/09/13 02:00:16;;;;;;;;;;;;;;;26.74;41.34;101068.56;4999492;28;20560;-86
2023/09/13 02:02:42;;;;;;;;;;;;;;;26.72;41.98;101070.88;4995557;28;20451;-86
2023/09/13 02:05:07;;;;;;;;;;;;;;;26.65;41.87;101067.16;4997330;28;19928;-86
2023/09/13 02:07:32;;;;;;;;;;;;;;;26.60;41.91;101073.69;4994108;28;19922;-85
2023/09/13 02:09:57;;;;;;;;;;;;;;;26.59;42.00;101080.34;4997114;28;20441;-86
2023/09/13 02:12:23;;;;;;;;;;;;;;;26.59;42.20;101080.34;4991636;28;19918;-85
2023/09/13 02:14:48;;;;;;;;;;;;;;;26.62;42.12;101081.59;4995298;28;20456;-86
2023/09/13 02:17:13;;;;;;;;;;;;;;;26.63;42.13;101073.00;4997136;28;20149;-86
2023/09/13 02:19:39;;;;;;;;;;;;;;;26.62;42.02;101062.34;4995258;28;19926;-86
2023/09/13 02:22:04;;;;;;;;;;;;;;;26.58;42.09;101059.50;4995085;28;19964;-86
2023/09/13 02:24:31;;;;;;;;;;;;;;;26.55;42.13;101054.69;4996618;28;19968;-86
2023/09/13 02:26:56;;;;;;;;;;;;;;;26.54;42.02;101061.31;4997097;28;19930;-86
2023/09/13 02:29:22;;;;;;;;;;;;;;;26.54;41.91;101050.34;4997257;28;19928;-86
2023/09/13 02:31:47;;;;;;;;;;;;;;;26.54;41.85;101050.34;4997250;28;20053;-86
2023/09/13 02:34:13;;;;;;;;;;;;;;;26.53;41.99;101050.69;5011474;28;19925;-86
2023/09/13 02:36:38;;;;;;;;;;;;;;;26.51;42.01;101045.53;4990403;28;19933;-86
2023/09/13 02:39:03;;;;;;;;;;;;;;;26.49;42.01;101056.09;4994468;28;20530;-86
2023/09/13 02:41:29;;;;;;;;;;;;;;;26.45;42.24;101049.69;4991678;28;19921;-86
2023/09/13 02:43:54;;;;;;;;;;;;;;;26.42;42.06;101051.19;4992721;28;19969;-86
2023/09/13 02:46:19;;;;;;;;;;;;;;;26.41;42.03;101051.53;5009948;28;20152;-86
2023/09/13 02:48:45;;;;;;;;;;;;;;;26.39;42.04;101054.63;4995114;28;19972;-86
2023/09/13 02:51:14;;;;;;;;;;;;;;;26.40;42.01;101050.75;4996436;28;19921;-86
2023/09/13 02:53:39;;;;;;;;;;;;;;;26.41;42.11;101049.59;4996554;28;20069;-86
2023/09/13 02:56:05;;;;;;;;;;;;;;;26.41;42.15;101051.53;4995317;28;19988;-86
2023/09/13 02:58:30;;;;;;;;;;;;;;;26.39;42.13;101048.31;4995577;28;19917;-86
2023/09/13 03:00:57;;;;;;;;;;;;;;;26.40;42.10;101038.94;5000668;28;19925;-86
2023/09/13 03:03:22;;;;;;;;;;;;;;;26.37;42.16;101034.94;4998179;28;19966;-86
2023/09/13 03:05:47;;;;;;;;;;;;;;;26.39;42.37;101034.56;4997101;28;19925;-86
2023/09/13 03:08:13;;;;;;;;;;;;;;;26.41;42.42;101051.53;4999191;28;20291;-86
2023/09/13 03:10:38;;;;;;;;;;;;;;;26.45;42.44;101066.97;4998929;28;19926;-86
2023/09/13 03:13:03;;;;;;;;;;;;;;;26.47;42.73;101100.41;5001270;28;19972;-87
2023/09/13 03:15:31;;;;;;;;;;;;;;;26.35;43.18;101298.19;4999065;28;19917;-88
2023/09/13 03:17:57;;;;;;;;;;;;;;;26.02;43.75;101289.97;4994870;28;19922;-86
2023/09/13 03:20:22;;;;;;;;;;;;;;;25.83;44.23;101282.25;4997059;28;20596;-87
2023/09/13 03:22:47;;;;;;;;;;;;;;;25.79;44.36;101262.13;4991141;28;19987;-87
2023/09/13 03:25:13;;;;;;;;;;;;;;;25.86;44.68;101256.09;5004613;28;19940;-90
2023/09/13 03:27:39;;;;;;;;;;;;;;;25.98;43.97;101258.06;5004067;28;20283;-92
2023/09/13 03:30:05;;;;;;;;;;;;;;;26.04;44.30;101260.25;5003285;28;19924;-89
2023/09/13 03:32:30;;;;;;;;;;;;;;;26.10;44.12;101244.34;5000916;28;20585;-86
2023/09/13 03:34:55;;;;;;;;;;;;;;;26.09;44.25;101232.56;4999303;28;19922;-88
2023/09/13 03:37:21;;;;;;;;;;;;;;;26.10;44.37;101223.19;5016394;28;19928;-85
2023/09/13 03:39:46;;;;;;;;;;;;;;;26.09;44.45;101204.31;4995730;28;19933;-85
2023/09/13 03:42:11;;;;;;;;;;;;;;;26.10;44.69;101183.94;5003391;28;20425;-86
2023/09/13 03:44:36;;;;;;;;;;;;;;;26.13;44.70;101161.28;5000457;28;19928;-85
2023/09/13 03:47:02;;;;;;;;;;;;;;;26.18;44.60;101150.88;5002256;28;20410;-85
2023/09/13 03:49:27;;;;;;;;;;;;;;;26.23;44.82;101132.56;4999202;28;19925;-86
2023/09/13 03:51:52;;;;;;;;;;;;;;;26.29;44.76;101122.94;5002023;28;19917;-85
2023/09/13 03:54:18;;;;;;;;;;;;;;;26.34;44.82;101101.53;4998017;28;19926;-86
2023/09/13 03:56:43;;;;;;;;;;;;;;;26.40;44.74;101113.13;4998461;28;19957;-86
2023/09/13 03:59:08;;;;;;;;;;;;;;;26.45;44.76;101079.91;5003459;28;19979;-86
2023/09/13 04:01:34;;;;;;;;;;;;;;;26.50;44.95;101066.72;4998487;28;19922;-86
2023/09/13 04:03:59;;;;;;;;;;;;;;;26.55;44.06;101035.44;4997767;28;19997;-85
2023/09/13 04:06:25;;;;;;;;;;;;;;;26.61;44.71;101023.06;4998488;28;19929;-85
2023/09/13 04:08:50;;;;;;;;;;;;;;;26.61;44.73;101016.78;5001386;28;19964;-86
2023/09/13 04:11:15;;;;;;;;;;;;;;;26.57;44.54;100989.22;4999667;28;19971;-86
2023/09/13 04:13:41;;;;;;;;;;;;;;;26.56;44.91;100979.34;5000878;28;19926;-86
2023/09/13 04:16:06;;;;;;;;;;;;;;;26.56;44.72;100971.09;5001252;28;19918;-86
2023/09/13 04:18:32;;;;;;;;;;;;;;;26.58;44.70;100955.09;4998523;28;19930;-87
2023/09/13 04:20:57;;;;;;;;;;;;;;;26.60;44.60;100941.78;5002445;28;19917;-87
2023/09/13 04:23:22;;;;;;;;;;;;;;;26.63;44.82;100937.53;4998880;28;19928;-88
2023/09/13 04:25:48;;;;;;;;;;;;;;;26.61;44.66;100931.59;4997900;28;19922;-89
2023/09/13 04:28:13;;;;;;;;;;;;;;;26.63;44.78;100937.53;5016374;28;19968;-87
2023/09/13 04:30:39;;;;;;;;;;;;;;;26.62;44.86;100935.94;5000447;28;19933;-89
2023/09/13 04:33:06;;;;;;;;;;;;;;;26.65;44.75;100936.03;5000625;28;19974;-89
2023/09/13 04:35:32;;;;;;;;;;;;;;;26.67;44.62;100944.72;4996136;28;19925;-88
2023/09/13 04:37:57;;;;;;;;;;;;;;;26.68;44.82;100945.50;4998856;28;20341;-88
2023/09/13 04:40:22;;;;;;;;;;;;;;;26.68;44.78;100946.31;4998551;28;19917;-88
2023/09/13 04:42:54;;;;;;;;;;;;;;;26.70;45.07;100948.69;4999672;28;19976;-89
2023/09/13 04:45:20;;;;;;;;;;;;;;;26.68;45.13;100962.00;4997647;28;20285;-87
2023/09/13 04:47:45;;;;;;;;;;;;;;;26.64;45.17;100948.16;5000127;28;19926;-89
2023/09/13 04:50:10;;;;;;;;;;;;;;;26.61;45.33;100940.63;5003335;28;19922;-89
2023/09/13 04:52:36;;;;;;;;;;;;;;;26.60;45.40;100935.50;5000842;28;19980;-88
2023/09/13 04:55:01;;;;;;;;;;;;;;;26.59;45.54;100942.94;5003197;28;20373;-88
2023/09/13 04:57:26;;;;;;;;;;;;;;;26.61;45.56;100954.38;4996798;28;19944;-88
2023/09/13 04:59:52;;;;;;;;;;;;;;;26.62;45.51;100958.72;5001974;28;19917;-87
2023/09/13 05:02:17;;;;;;;;;;;;;;;26.58;45.51;100955.09;5000388;28;20291;-88
2023/09/13 05:04:43;;;;;;;;;;;;;;;26.56;45.48;100953.81;5002147;28;20344;-88
2023/09/13 05:07:08;;;;;;;;;;;;;;;26.56;45.55;100964.81;5000951;28;19925;-88
2023/09/13 05:09:35;;;;;;;;;;;;;;;26.57;45.47;100950.75;4999943;28;19926;-88
2023/09/13 05:12:00;;;;;;;;;;;;;;;26.55;45.60;100942.03;5001919;28;19917;-88
2023/09/13 05:14:26;;;;;;;;;;;;;;;26.56;45.59;100949.13;4999796;28;20393;-88
2023/09/13 05:16:51;;;;;;;;;;;;;;;26.57;45.62;100944.41;5001433;28;19925;-88
2023/09/13 05:19:18;;;;;;;;;;;;;;;26.55;45.69;100947.50;5017194;28;20012;-88
2023/09/13 05:21:43;;;;;;;;;;;;;;;26.56;45.69;100943.63;5002224;28;19929;-88
2023/09/13 05:24:08;;;;;;;;;;;;;;;26.57;45.70;100955.41;5003739;28;19925;-88
2023/09/13 05:26:33;;;;;;;;;;;;;;;26.59;45.82;100955.88;4999708;28;20286;-88
2023/09/13 05:28:59;;;;;;;;;;;;;;;26.58;45.89;100952.34;5000022;28;20310;-88
2023/09/13 05:31:24;;;;;;;;;;;;;;;26.58;45.72;100944.09;5002521;28;20012;-87
2023/09/13 05:33:49;;;;;;;;;;;;;;;26.60;45.71;100936.28;4999225;28;19917;-88
2023/09/13 05:36:16;;;;;;;;;;;;;;;26.62;45.74;100930.44;4997859;28;19960;-88
2023/09/13 05:38:41;;;;;;;;;;;;;;;26.64;45.83;100928.94;4995620;28;19953;-88
2023/09/13 05:41:10;;;;;;;;;;;;;;;26.67;45.73;100933.72;4999806;28;19960;-88
2023/09/13 05:43:36;;;;;;;;;;;;;;;26.67;45.77;100925.47;4998331;28;19925;-87
2023/09/13 05:46:01;;;;;;;;;;;;;;;26.67;45.89;100927.44;5000095;28;19922;-88
2023/09/13 05:48:26;;;;;;;;;;;;;;;26.66;45.89;100926.63;4998769;28;19941;-88
2023/09/13 05:50:52;;;;;;;;;;;;;;;26.64;45.96;100928.13;5002168;28;19940;-88
2023/09/13 05:53:19;;;;;;;;;;;;;;;26.61;45.88;100932.38;4999761;28;19928;-87
2023/09/13 05:55:45;;;;;;;;;;;;;;;26.62;46.05;100933.19;5000119;28;21645;-89
2023/09/13 05:58:10;;;;;;;;;;;;;;;26.63;46.16;100921.03;5000972;28;19925;-88
2023/09/13 06:00:36;;;;;;;;;;;;;;;26.61;46.35;100902.16;5000498;28;19918;-88
2023/09/13 06:03:01;;;;;;;;;;;;;;;26.62;46.20;100909.25;5002642;28;19917;-88
2023/09/13 06:05:27;;;;;;;;;;;;;;;26.62;46.50;100914.75;4998894;28;20247;-88
2023/09/13 06:07:52;;;;;;;;;;;;;;;26.65;46.19;100929.72;4994695;28;19925;-87
2023/09/13 06:10:17;;;;;;;;;;;;;;;26.67;46.16;100930.16;4993467;28;20019;-89
2023/09/13 06:12:43;;;;;;;;;;;;;;;26.70;46.22;100940.47;4997047;28;19918;-90
2023/09/13 06:15:08;;;;;;;;;;;;;;;26.70;46.19;100946.75;4997679;28;19965;-90
2023/09/13 06:17:36;;;;;;;;;;;;;;;26.75;46.06;100962.19;4994881;28;19968;-89
2023/09/13 06:20:03;;;;;;;;;;;;;;;26.80;46.00;100964.69;4993554;28;19925;-86
2023/09/13 06:22:29;;;;;;;;;;;;;;;26.81;46.09;100969.03;5001258;28;19921;-88
2023/09/13 06:24:54;;;;;;;;;;;;;;;26.82;46.05;100972.59;4998974;28;19929;-88
2023/09/13 06:27:19;;;;;;;;;;;;;;;26.82;46.20;100972.59;5020080;28;19933;-89
2023/09/13 06:29:45;;;;;;;;;;;;;;;26.85;46.23;100980.13;5003389;28;20042;-89
2023/09/13 06:32:10;;;;;;;;;;;;;;;26.84;46.21;100992.28;5005074;28;19925;-89
2023/09/13 06:34:35;;;;;;;;;;;;;;;26.83;46.25;100996.16;5002891;28;20345;-89
2023/09/13 06:37:02;;;;;;;;;;;;;;;26.85;46.34;100996.63;5004527;28;20062;-89
2023/09/13 06:39:27;;;;;;;;;;;;;;;26.88;46.30;101004.16;4998357;28;20146;-88
2023/09/13 06:41:53;;;;;;;;;;;;;;;26.95;46.45;101007.09;5000801;28;19918;-89
2023/09/13 06:44:18;;;;;;;;;;;;;;;27.01;46.35;101009.25;5000358;28;19996;-87
2023/09/13 06:46:43;;;;;;;;;;;;;;;27.04;46.30;101019.56;4999989;28;19925;-89
2023/09/13 06:49:09;;;;;;;;;;;;;;;27.10;46.32;101020.09;4999583;28;20318;-88
2023/09/13 06:51:34;;;;;;;;;;;;;;;27.15;46.49;101024.56;5018123;28;19952;-88
2023/09/13 06:53:59;;;;;;;;;;;;;;;27.20;46.32;101027.81;5005672;28;19917;-89
2023/09/13 06:56:25;;;;;;;;;;;;;;;27.27;46.25;101038.19;5005501;28;19933;-88
2023/09/13 06:58:50;;;;;;;;;;;;;;;27.30;46.26;101032.81;5004854;28;19917;-87
2023/09/13 07:01:16;;;;;;;;;;;;;;;27.37;46.33;101027.47;5002441;28;19917;-87
2023/09/13 07:03:41;;;;;;;;;;;;;;;27.45;45.88;101038.66;5001686;28;19928;-87
2023/09/13 07:06:07;;;;;;;;;;;;;;;27.45;45.96;101033.16;5004926;28;19925;-87
2023/09/13 07:08:32;;;;;;;;;;;;;;;27.39;46.05;101038.94;5000454;28;20036;-86
2023/09/13 07:10:57;;;;;;;;;;;;;;;27.42;45.90;101044.88;5005455;28;20426;-86
2023/09/13 07:13:23;;;;;;;;;;;;;;;27.40;46.06;101037.78;5004270;28;19929;-86
2023/09/13 07:15:48;;;;;;;;;;;;;;;27.45;45.86;101036.69;5000658;28;20389;-87
2023/09/13 07:18:13;;;;;;;;;;;;;;;27.54;45.98;101048.34;5000783;28;19921;-86
2023/09/13 07:20:39;;;;;;;;;;;;;;;27.68;46.09;101047.94;4998840;28;19976;-86
2023/09/13 07:23:04;;;;;;;;;;;;;;;27.79;45.84;101048.97;5003743;28;19924;-87
2023/09/13 07:25:29;;;;;;;;;;;;;;;27.84;45.75;101050.66;5000293;28;20397;-86
2023/09/13 07:27:54;;;;;;;;;;;;;;;27.92;45.78;101052.41;5003367;28;20405;-85
2023/09/13 07:30:20;;;;;;;;;;;;;;;28.03;45.50;101058.19;5009833;28;19928;-86
2023/09/13 07:32:47;;;;;;;;;;;;;;;28.05;45.30;101059.41;4998825;28;20413;-86
2023/09/13 07:35:12;;;;;;;;;;;;;;;28.07;45.46;101057.09;4997108;28;19929;-86
2023/09/13 07:37:38;;;;;;;;;;;;;;;28.11;45.46;101046.94;4999333;28;19925;-86
2023/09/13 07:40:04;;;;;;;;;;;;;;;28.15;45.38;101044.28;5003636;28;19957;-86
2023/09/13 07:42:29;;;;;;;;;;;;;;;28.16;45.12;101045.88;5006107;28;19922;-85
2023/09/13 07:44:55;;;;;;;;;;;;;;;28.09;44.96;101042.97;5002016;28;19921;-86
2023/09/13 07:47:20;;;;;;;;;;;;;;;28.02;45.10;101045.56;4999819;28;19925;-86
2023/09/13 07:49:45;;;;;;;;;;;;;;;27.99;45.44;101042.34;4999308;28;19938;-85
2023/09/13 07:52:11;;;;;;;;;;;;;;;28.04;45.33;101049.56;5000665;28;20378;-86
2023/09/13 07:54:36;;;;;;;;;;;;;;;28.11;45.39;101046.16;5000085;28;19944;-86
2023/09/13 07:57:01;;;;;;;;;;;;;;;28.19;45.07;101056.19;5004615;28;19965;-85
2023/09/13 07:59:27;;;;;;;;;;;;;;;28.23;44.86;101044.09;4995404;28;19926;-85
2023/09/13 08:01:53;;;;;;;;;;;;;;;28.24;44.72;101048.44;4997587;28;19918;-85
2023/09/13 08:04:18;;;;;;;;;;;;;;;28.24;44.92;101048.44;5002966;28;19920;-87
2023/09/13 08:06:44;;;;;;;;;;;;;;;28.28;44.83;101045.78;4998497;28;19972;-85
2023/09/13 08:09:13;;;;;;;;;;;;;;;28.43;44.83;101039.41;5001515;28;20405;-84
2023/09/13 08:11:39;;;;;;;;;;;;;;;28.60;44.79;101043.69;5001441;28;19967;-84
2023/09/13 08:14:05;;;;;;;;;;;;;;;28.79;44.29;101034.63;5002583;28;20300;-85
2023/09/13 08:16:30;;;;;;;;;;;;;;;28.90;44.00;101032.88;5000492;28;19921;-84
2023/09/13 08:18:55;;;;;;;;;;;;;;;28.96;44.17;101034.19;5001468;28;20489;-85
2023/09/13 08:21:21;;;;;;;;;;;;;;;29.00;43.83;101037.78;5002138;28;19925;-85
2023/09/13 08:23:46;;;;;;;;;;;;;;;28.97;43.87;101035.78;4998817;28;20008;-86
2023/09/13 08:26:11;;;;;;;;;;;;;;;28.95;43.97;101040.88;4997654;28;19927;-83
2023/09/13 08:28:37;;;;;;;;;;;;;;;28.96;44.01;101036.16;4994520;28;19918;-85
2023/09/13 08:31:03;;;;;;;;;;;;;;;28.91;43.99;101036.44;5003253;28;19921;-85
2023/09/13 08:33:28;;;;;;;;;;;;;;;28.89;43.96;101039.53;5002397;28;19924;-84
2023/09/13 08:35:54;;;;;;;;;;;;;;;28.92;44.15;101038.03;5001722;28;20009;-85
2023/09/13 08:38:19;;;;;;;;;;;;;;;29.06;44.30;101038.28;5004746;28;19933;-86
2023/09/13 08:40:45;;;;;;;;;;;;;;;29.23;44.07;101042.53;5000420;28;19961;-84
2023/09/13 08:43:11;;;;;;;;;;;;;;;29.26;43.84;101042.59;5019509;28;20309;-86
2023/09/13 08:45:37;;;;;;;;;;;;;;;29.18;43.72;101036.16;5000475;28;20008;-88
2023/09/13 08:48:04;;;;;;;;;;;;;;;29.23;43.89;101043.31;5002148;28;21360;-85
2023/09/13 08:50:30;;;;;;;;;;;;;;;29.28;43.47;101039.50;5011559;28;19923;-86
2023/09/13 08:52:59;;;;;;;;;;;;;;;29.30;43.84;101037.16;5001508;28;19929;-87
2023/09/13 08:55:25;;;;;;;;;;;;;;;29.35;43.27;101040.38;5001566;28;20391;-88
2023/09/13 08:57:51;;;;;;;;;;;;;;;29.31;43.50;101041.50;4996972;28;19929;-87
2023/09/13 09:00:16;;;;;;;;;;;;;;;29.34;43.64;101038.00;5002057;28;19922;-86
2023/09/13 09:02:42;;;;;;;;;;;;;;;29.32;43.32;101052.19;5016577;28;19921;-86
2023/09/13 09:05:09;;;;;;;;;;;;;;;29.32;43.18;101054.94;5001459;28;19917;-85
2023/09/13 09:07:36;;;;;;;;;;;;;;;29.27;43.52;101048.94;5001280;28;19983;-85
2023/09/13 09:10:08;;;;;;;;;;;;;;;29.24;43.36;101052.41;5001465;28;19918;-85
2023/09/13 09:12:34;;;;;;;;;;;;;;;29.18;43.45;101051.91;4997200;28;20293;-86
2023/09/13 09:15:00;;;;;;;;;;;;;;;29.13;43.53;101055.78;5003154;28;19926;-85
2023/09/13 09:17:26;;;;;;;;;;;;;;;29.07;43.25;101054.47;5003726;28;20897;-84
2023/09/13 09:19:52;;;;;;;;;;;;;;;29.06;43.42;101044.59;5003007;28;19968;-87
2023/09/13 09:22:18;;;;;;;;;;;;;;;29.13;43.62;101050.25;5002509;28;19926;-86
2023/09/13 09:24:43;;;;;;;;;;;;;;;29.27;43.58;101057.22;4999772;28;19921;-83
2023/09/13 09:27:10;;;;;;;;;;;;;;;29.33;43.36;101061.25;5003554;28;19955;-86
2023/09/13 09:29:37;;;;;;;;;;;;;;;29.29;43.18;101058.44;4999298;28;19926;-85
2023/09/13 09:32:03;;;;;;;;;;;;;;;29.18;43.08;101049.94;4998014;28;20424;-84
2023/09/13 09:34:29;;;;;;;;;;;;;;;29.10;43.27;101059.28;5000989;28;19922;-86
2023/09/13 09:37:01;;;;;;;;;;;;;;;29.12;43.26;101065.22;4999417;28;19924;-84
2023/09/13 09:39:26;;;;;;;;;;;;;;;29.18;43.22;101066.50;5000939;28;19971;-85
2023/09/13 09:41:57;;;;;;;;;;;;;;;29.28;43.50;101067.09;5000569;28;20018;-85
2023/09/13 09:44:26;;;;;;;;;;;;;;;29.42;43.02;101061.78;4995350;28;19925;-85
2023/09/13 09:46:52;;;;;;;;;;;;;;;29.47;42.75;101065.09;4996073;28;19929;-86
2023/09/13 09:49:17;;;;;;;;;;;;;;;29.42;42.63;101062.56;5000742;28;19928;-91
2023/09/13 09:51:42;;;;;;;;;;;;;;;29.43;42.60;101069.69;5006172;28;19928;-88
2023/09/13 09:54:08;;;;;;;;;;;;;;;29.36;42.58;101075.09;5003855;28;19932;-90
2023/09/13 09:56:33;;;;;;;;;;;;;;;29.28;43.05;101072.59;5002163;28;19944;-87
2023/09/13 09:58:59;;;;;;;;;;;;;;;29.28;42.68;101078.91;5003348;28;20325;-88
2023/09/13 10:01:24;;;;;;;;;;;;;;;29.26;42.87;101081.22;5005612;28;20400;-90
2023/09/13 10:03:54;;;;;;;;;;;;;;;29.31;43.00;101080.13;5002788;28;19924;-86
2023/09/13 10:06:20;;;;;;;;;;;;;;;29.37;43.04;101079.47;5001368;28;19926;-86
2023/09/13 10:08:46;;;;;;;;;;;;;;;29.45;42.41;101083.16;5001033;28;20343;-88
2023/09/13 10:11:16;;;;;;;;;;;;;;;29.48;42.52;101076.91;5002787;28;20023;-92
2023/09/13 10:13:42;;;;;;;;;;;;;;;29.53;42.76;101082.13;5002492;28;19928;-87
2023/09/13 10:16:08;;;;;;;;;;;;;;;29.58;42.66;101087.34;5004845;28;19917;-89
2023/09/13 10:18:38;;;;;;;;;;;;;;;29.63;42.35;101078.75;5003365;28;20072;-89
2023/09/13 10:21:06;;;;;;;;;;;;;;;29.60;41.95;101089.72;5002184;28;20053;-86
2023/09/13 10:23:39;;;;;;;;;;;;;;;29.51;42.41;101094.72;5001183;28;19926;-89
2023/09/13 10:26:06;;;;;;;;;;;;;;;29.35;42.53;101094.78;5005404;28;20453;-91
2023/09/13 10:28:32;;;;;;;;;;;;;;;29.36;42.62;101101.91;5006148;28;19917;-85
2023/09/13 10:30:59;;;;;;;;;;;;;;;29.37;42.56;101097.97;5003998;28;19929;-84
2023/09/13 10:33:26;;;;;;;;;;;;;;;29.35;42.42;101103.88;4998033;28;19980;-87
2023/09/13 10:35:58;;;;;;;;;;;;;;;29.23;42.65;101103.22;5004522;28;19922;-88
2023/09/13 10:38:31;;;;;;;;;;;;;;;29.14;42.56;101117.28;5002047;28;19964;-88
2023/09/13 10:41:05;;;;;;;;;;;;;;;29.08;42.53;101118.72;5003091;28;19929;-88
2023/09/13 10:43:31;;;;;;;;;;;;;;;29.05;42.72;101123.00;4998751;28;20369;-86
2023/09/13 10:45:57;;;;;;;;;;;;;;;29.12;42.75;101120.41;5014782;28;19929;-88
2023/09/13 10:48:23;;;;;;;;;;;;;;;29.24;42.63;101118.63;4997581;28;20601;-86
2023/09/13 10:50:49;;;;;;;;;;;;;;;29.39;42.67;101107.47;5002638;28;19945;-90
2023/09/13 10:53:15;;;;;;;;;;;;;;;29.61;42.16;101103.16;4999801;28;19961;-89
2023/09/13 10:55:40;;;;;;;;;;;;;;;29.69;41.87;101110.41;5002586;28;20104;-91
2023/09/13 10:58:08;;;;;;;;;;;;;;;29.88;42.07;101108.72;5000882;28;19918;-89
2023/09/13 11:00:34;;;;;;;;;;;;;;;30.16;41.57;101111.94;4991673;28;19922;-87
2023/09/13 11:03:00;;;;;;;;;;;;;;;30.43;41.04;101125.75;5005878;28;21730;-89
2023/09/13 11:05:27;;;;;;;;;;;;;;;30.63;41.03;101119.75;5002674;28;19922;-89
2023/09/13 11:07:52;;;;;;;;;;;;;;;30.84;40.56;101112.88;5011042;28;20491;-88
2023/09/13 11:10:18;;;;;;;;;;;;;;;30.97;40.50;101117.00;5001911;28;19921;-90
2023/09/13 11:12:48;;;;;;;;;;;;;;;30.91;40.13;101115.75;4999734;28;19958;-87
2023/09/13 11:15:14;;;;;;;;;;;;;;;30.87;40.43;101118.44;5001782;28;19967;-89
2023/09/13 11:17:40;;;;;;;;;;;;;;;30.89;40.07;101129.97;5000506;28;20385;-87
2023/09/13 11:20:24;;;;;;;;;;;;;;;30.84;39.83;101123.94;5010958;28;19968;-88
2023/09/13 11:23:00;;;;;;;;;;;;;;;30.78;40.23;101136.53;5003871;28;19944;-90
2023/09/13 11:25:29;;;;;;;;;;;;;;;30.80;39.82;101129.44;5006960;28;19926;-91
2023/09/13 11:27:58;;;;;;;;;;;;;;;30.85;39.36;101140.16;5004793;28;19936;-91
2023/09/13 11:30:45;;;;;;;;;;;;;;;30.73;39.59;101134.91;5002952;28;19959;-89
2023/09/13 11:33:14;;;;;;;;;;;;;;;30.47;39.81;101143.19;5007281;28;20027;-93
2023/09/13 11:35:40;;;;;;;;;;;;;;;30.27;40.39;101150.81;5007130;28;19956;-92
2023/09/13 11:38:09;;;;;;;;;;;;;;;30.18;40.45;101148.31;5006652;28;19925;-90
2023/09/13 11:40:35;;;;;;;;;;;;;;;30.10;40.60;101157.66;5005410;28;19924;-90
2023/09/13 11:43:01;;;;;;;;;;;;;;;29.98;40.34;101155.88;5007063;28;19921;-90
2023/09/13 11:45:30;;;;;;;;;;;;;;;29.91;40.81;101161.25;5011274;28;19926;-92
2023/09/13 11:47:56;;;;;;;;;;;;;;;29.90;41.10;101158.88;5015764;28;19928;-91
2023/09/13 11:50:22;;;;;;;;;;;;;;;29.87;40.84;101176.19;5010370;28;19933;-94
2023/09/13 11:53:07;;;;;;;;;;;;;;;29.78;41.50;101176.44;5008550;28;20304;-92
2023/09/13 11:55:37;;;;;;;;;;;;;;;29.73;41.60;101180.31;5019757;28;19922;-91
2023/09/13 11:58:03;;;;;;;;;;;;;;;29.67;41.60;101176.25;5011698;28;19999;-90
2023/09/13 12:00:29;;;;;;;;;;;;;;;29.60;41.89;101187.16;5004939;28;20614;-89
2023/09/13 12:02:54;;;;;;;;;;;;;;;29.57;42.08;101190.66;4998387;28;19921;-87
2023/09/13 12:05:20;;;;;;;;;;;;;;;29.51;42.12;101199.63;4998650;28;19921;-88
2023/09/13 12:07:45;;;;;;;;;;;;;;;29.45;42.45;101197.16;4995691;28;19930;-88
2023/09/13 12:10:11;;;;;;;;;;;;;;;29.40;42.41;101197.41;5013596;28;19921;-88
2023/09/13 12:12:40;;;;;;;;;;;;;;;29.37;42.56;101194.59;4994468;28;19980;-87
2023/09/13 12:15:06;;;;;;;;;;;;;;;29.35;42.82;101199.66;4992636;28;20024;-86
2023/09/13 12:17:37;;;;;;;;;;;;;;;29.40;42.87;101207.66;4997473;28;20886;-87
2023/09/13 12:20:05;;;;;;;;;;;;;;;29.45;42.89;101208.19;4999656;28;19975;-88
2023/09/13 12:22:37;;;;;;;;;;;;;;;29.53;42.79;101206.38;4998303;28;19925;-86
2023/09/13 12:25:02;;;;;;;;;;;;;;;29.70;42.93;101211.41;5003619;28;19921;-87
2023/09/13 12:27:28;;;;;;;;;;;;;;;29.88;42.52;101205.41;4998651;28;19925;-87
2023/09/13 12:29:53;;;;;;;;;;;;;;;29.95;42.42;101205.53;5003784;28;20417;-87